Tim S. Dool — VGPY — position and weather

sailwx.info

Track history (hours):
 
Tides and Currents Weather Stations Pressure Air Temp Water Temp Dewpoint Dewpoint Depression Visibility Wind Speed Wind Dir Waves Ship Positions

Tim S. Dool

Last reported at 2014-Sep-28 15:07 UTC. Time now 2014-Oct-02 08:40 UTC.
Position N 46°15' W 084°06'.

Length 223 m; draft 5.1 m.

Type: Cargo ship. MMSI: 316001696.

Date/timePositionNaut miles runAvg speedWind from/ knotsBaromVisibWave heightAir tempDewpointWater temp
2014-Sep-28 15:07N 46°15' W 084°06'4 7.9
2014-Sep-28 14:33N 46°11' W 084°06'1110.6
2014-Sep-28 13:34N 46°03' W 083°56'1211.3
2014-Sep-28 12:31N 45°52' W 083°49'1313.4
2014-Sep-28 11:33N 45°41' W 083°39'9617.3
2014-Sep-28 06:00N 44°18' W 082°30'163 6.8 200 / 71019.010.8 0.516.0
2014-Sep-27 06:00N 42°06' W 080°18'1931.6 070 / 61022.0 0.519.0
2014-Sep-27 05:23N 42°21' W 080°34'1113.2
2014-Sep-27 04:33N 42°25' W 080°20'1513.5
2014-Sep-27 03:27N 42°31' W 080°01'1213.2
2014-Sep-27 02:32N 42°37' W 079°47'45 3.0
2014-Sep-26 11:28N 43°16' W 079°15'1413.2
2014-Sep-26 10:24N 43°17' W 079°34'58 1.3
2014-Sep-24 13:00N 43°36' W 078°18'7413.5 130 / 71028.010.8 0.519.0
2014-Sep-24 07:30N 43°57' W 076°39'1212.2
2014-Sep-24 06:33N 44°03' W 076°26'1111.2
2014-Sep-24 05:33N 44°12' W 076°16'1010.3
2014-Sep-24 04:32N 44°16' W 076°03'82 6.7
2014-Sep-23 16:08N 45°05' W 074°30'5 8.9
2014-Sep-23 15:33N 45°08' W 074°24'1010.2
2014-Sep-23 14:33N 45°14' W 074°12'8 8.4
2014-Sep-23 13:33N 45°14' W 073°60'5 5.2
2014-Sep-23 12:33N 45°18' W 073°56'1 0.9
2014-Sep-23 11:33N 45°19' W 073°55'5 4.8
2014-Sep-23 10:33N 45°22' W 073°50'7 7.5
2014-Sep-23 09:33N 45°25' W 073°40'4 4.1
2014-Sep-23 08:33N 45°24' W 073°34'1 1.3
2014-Sep-23 07:33N 45°24' W 073°32'5 4.7
2014-Sep-23 06:33N 45°29' W 073°31'1 1.1
2014-Sep-23 05:33N 45°30' W 073°31'5 4.7
2014-Sep-23 04:33N 45°35' W 073°30'8 7.8
2014-Sep-23 03:33N 45°42' W 073°27'9 9.0
2014-Sep-23 02:33N 45°49' W 073°19'9 9.0
2014-Sep-23 01:34N 45°57' W 073°13'27 9.0
2014-Sep-22 22:33N 46°15' W 072°44'9 8.8
2014-Sep-22 21:33N 46°20' W 072°33'9 9.1
2014-Sep-22 20:33N 46°25' W 072°22'8 8.0
2014-Sep-22 19:33N 46°31' W 072°14'174 9.9
2014-Sep-22 02:00N 48°30' W 069°06'9311.6 060 / 6998.0 0.3 0.513.0
2014-Sep-21 18:00N 49°12' W 067°00'   200 / 15998.0 5.410.010.0
2014-Sep-18 18:00N 49°06' W 067°06'   250 / 201009.010.8 1.013.0
Track history (hours):
 
Tides and Currents Weather Stations Pressure Air Temp Water Temp Dewpoint Dewpoint Depression Visibility Wind Speed Wind Dir Waves Ship Positions

Tim S. Dool

Last reported at 2014-Sep-28 15:07 UTC. Time now 2014-Oct-02 08:40 UTC.
Position N 46°15' W 084°06'.

Length 223 m; draft 5.1 m.

Type: Cargo ship. MMSI: 316001696.

Date/timePositionNaut miles runAvg speedWind from/ knotsBaromVisibWave heightAir tempDewpointWater temp
2014-Sep-28 15:07N 46°15' W 084°06'4 7.9
2014-Sep-28 14:33N 46°11' W 084°06'1110.6
2014-Sep-28 13:34N 46°03' W 083°56'1211.3
2014-Sep-28 12:31N 45°52' W 083°49'1313.4
2014-Sep-28 11:33N 45°41' W 083°39'9617.3
2014-Sep-28 06:00N 44°18' W 082°30'163 6.8 200 / 71019.010.8 0.516.0
2014-Sep-27 06:00N 42°06' W 080°18'1931.6 070 / 61022.0 0.519.0
2014-Sep-27 05:23N 42°21' W 080°34'1113.2
2014-Sep-27 04:33N 42°25' W 080°20'1513.5
2014-Sep-27 03:27N 42°31' W 080°01'1213.2
2014-Sep-27 02:32N 42°37' W 079°47'45 3.0
2014-Sep-26 11:28N 43°16' W 079°15'1413.2
2014-Sep-26 10:24N 43°17' W 079°34'58 1.3
2014-Sep-24 13:00N 43°36' W 078°18'7413.5 130 / 71028.010.8 0.519.0
2014-Sep-24 07:30N 43°57' W 076°39'1212.2
2014-Sep-24 06:33N 44°03' W 076°26'1111.2
2014-Sep-24 05:33N 44°12' W 076°16'1010.3
2014-Sep-24 04:32N 44°16' W 076°03'82 6.7
2014-Sep-23 16:08N 45°05' W 074°30'5 8.9
2014-Sep-23 15:33N 45°08' W 074°24'1010.2
2014-Sep-23 14:33N 45°14' W 074°12'8 8.4
2014-Sep-23 13:33N 45°14' W 073°60'5 5.2
2014-Sep-23 12:33N 45°18' W 073°56'1 0.9
2014-Sep-23 11:33N 45°19' W 073°55'5 4.8
2014-Sep-23 10:33N 45°22' W 073°50'7 7.5
2014-Sep-23 09:33N 45°25' W 073°40'4 4.1
2014-Sep-23 08:33N 45°24' W 073°34'1 1.3
2014-Sep-23 07:33N 45°24' W 073°32'5 4.7
2014-Sep-23 06:33N 45°29' W 073°31'1 1.1
2014-Sep-23 05:33N 45°30' W 073°31'5 4.7
2014-Sep-23 04:33N 45°35' W 073°30'8 7.8
2014-Sep-23 03:33N 45°42' W 073°27'9 9.0
2014-Sep-23 02:33N 45°49' W 073°19'9 9.0
2014-Sep-23 01:34N 45°57' W 073°13'27 9.0
2014-Sep-22 22:33N 46°15' W 072°44'9 8.8
2014-Sep-22 21:33N 46°20' W 072°33'9 9.1
2014-Sep-22 20:33N 46°25' W 072°22'8 8.0
2014-Sep-22 19:33N 46°31' W 072°14'174 9.9
2014-Sep-22 02:00N 48°30' W 069°06'9311.6 060 / 6998.0 0.3 0.513.0
2014-Sep-21 18:00N 49°12' W 067°00'   200 / 15998.0 5.410.010.0
2014-Sep-18 18:00N 49°06' W 067°06'   250 / 201009.010.8 1.013.0

Dump ship's entire track history